Time;durP1;ratioP1;P1;durP2;ratioP2;P2;SDS_P1;SDS_P2;PMS_P1;PMS_P2;Temp;Humidity;BMP_temperature;BMP_pressure;BME280_temperature;BME280_humidity;BME280_pressure;Samples;Min_cycle;Max_cycle;Signal;HPM_P1;HPM_P2
2023/02/11 00:01:27;;;;;;;25.55;7.07;;;7.70;99.90;;;;;;4629071;30;20245;-78
2023/02/11 00:03:53;;;;;;;27.08;7.18;;;7.70;99.90;;;;;;4636655;30;20252;-79
2023/02/11 00:06:20;;;;;;;25.05;7.38;;;7.70;99.90;;;;;;4639771;30;20221;-81
2023/02/11 00:08:46;;;;;;;35.80;7.65;;;7.70;99.90;;;;;;4651484;30;20205;-80
2023/02/11 00:11:14;;;;;;;34.45;7.88;;;7.70;99.90;;;;;;4652223;30;20198;-81
2023/02/11 00:13:41;;;;;;;28.13;7.85;;;7.70;99.90;;;;;;4639564;30;20619;-81
2023/02/11 00:16:09;;;;;;;32.72;7.65;;;7.70;99.90;;;;;;4636964;30;20209;-81
2023/02/11 00:18:35;;;;;;;33.15;7.30;;;7.70;99.90;;;;;;4650599;30;20208;-79
2023/02/11 00:21:06;;;;;;;33.20;7.93;;;7.70;99.90;;;;;;4651572;30;20736;-80
2023/02/11 00:23:32;;;;;;;30.90;7.43;;;7.70;99.90;;;;;;4652668;30;20185;-80
2023/02/11 00:25:58;;;;;;;31.10;6.80;;;7.70;99.90;;;;;;4651984;30;20698;-83
2023/02/11 00:28:24;;;;;;;28.50;7.70;;;7.70;99.90;;;;;;4650847;30;20237;-83
2023/02/11 00:30:56;;;;;;;35.28;8.60;;;7.70;99.90;;;;;;4648816;30;20202;-82
2023/02/11 00:33:22;;;;;;;33.42;8.25;;;7.70;99.90;;;;;;4633323;30;20209;-80
2023/02/11 00:35:48;;;;;;;28.83;8.18;;;7.70;99.90;;;;;;4632215;30;20704;-81
2023/02/11 00:38:14;;;;;;;27.73;7.43;;;7.70;99.90;;;;;;4653064;30;20298;-78
2023/02/11 00:40:40;;;;;;;35.13;7.72;;;7.80;99.90;;;;;;4645943;30;20807;-80
2023/02/11 00:43:06;;;;;;;27.08;8.48;;;7.80;99.90;;;;;;4637830;30;20196;-80
2023/02/11 00:45:31;;;;;;;23.73;7.68;;;7.80;99.90;;;;;;4635982;30;20221;-79
2023/02/11 00:47:57;;;;;;;28.80;7.68;;;7.80;99.90;;;;;;4639097;30;20209;-80
2023/02/11 00:50:23;;;;;;;29.08;8.13;;;7.80;99.90;;;;;;4627106;30;20289;-79
2023/02/11 00:52:49;;;;;;;31.17;8.70;;;7.80;99.90;;;;;;4633285;30;20451;-81
2023/02/11 00:55:15;;;;;;;34.95;8.20;;;7.70;99.90;;;;;;4629623;30;20233;-79
2023/02/11 00:57:41;;;;;;;33.45;8.05;;;7.70;99.90;;;;;;4650260;30;20240;-81
2023/02/11 01:00:10;;;;;;;32.22;9.25;;;7.80;99.90;;;;;;4643123;30;20655;-80
2023/02/11 01:02:36;;;;;;;29.42;8.82;;;7.80;99.90;;;;;;4650786;30;20240;-81
2023/02/11 01:05:02;;;;;;;38.90;9.02;;;7.80;99.90;;;;;;4644710;30;20331;-81
2023/02/11 01:07:28;;;;;;;34.42;9.50;;;7.80;99.90;;;;;;4636669;30;20202;-78
2023/02/11 01:09:54;;;;;;;32.22;9.15;;;7.80;99.90;;;;;;4628451;30;21221;-81
2023/02/11 01:12:21;;;;;;;32.20;9.45;;;7.80;99.90;;;;;;4633703;30;20201;-81
2023/02/11 01:14:46;;;;;;;35.92;9.52;;;7.80;99.90;;;;;;4636458;30;20834;-82
2023/02/11 01:17:12;;;;;;;38.40;10.25;;;7.80;99.90;;;;;;4652043;30;20202;-78
2023/02/11 01:19:38;;;;;;;33.65;9.20;;;7.80;99.90;;;;;;4647304;30;20313;-82
2023/02/11 01:22:05;;;;;;;30.33;9.05;;;7.80;99.90;;;;;;4646231;30;20213;-79
2023/02/11 01:24:31;;;;;;;36.20;9.55;;;7.80;99.90;;;;;;4627026;30;21483;-81
2023/02/11 01:26:57;;;;;;;35.90;9.57;;;7.80;99.90;;;;;;4645533;30;20226;-78
2023/02/11 01:29:23;;;;;;;29.25;9.68;;;7.80;99.90;;;;;;4645790;30;20193;-78
2023/02/11 01:31:49;;;;;;;33.67;9.82;;;7.80;99.90;;;;;;4618488;30;20206;-81
2023/02/11 01:34:15;;;;;;;34.97;10.30;;;7.80;99.90;;;;;;4626179;30;20208;-81
2023/02/11 01:36:41;;;;;;;36.63;9.95;;;7.70;99.90;;;;;;4651704;30;20206;-79
2023/02/11 01:39:07;;;;;;;28.38;9.73;;;7.80;99.90;;;;;;4651678;30;20255;-80
2023/02/11 01:41:34;;;;;;;34.83;9.93;;;7.70;99.90;;;;;;4633273;30;20217;-80
2023/02/11 01:44:27;;;;;;;35.95;9.30;;;7.80;99.90;;;;;;4646788;30;20204;-81
2023/02/11 01:46:52;;;;;;;25.10;9.48;;;7.70;99.90;;;;;;4650851;30;20229;-80
2023/02/11 01:49:28;;;;;;;25.95;9.85;;;7.70;99.90;;;;;;4628881;30;20217;-80
2023/02/11 01:51:59;;;;;;;33.50;10.27;;;7.70;99.90;;;;;;4646348;30;20196;-79
2023/02/11 01:57:23;;;;;;;36.25;11.43;;;7.60;99.90;;;;;;4653774;30;20327;-79
2023/02/11 02:00:00;;;;;;;30.52;10.60;;;7.70;99.90;;;;;;4643070;30;20205;-82
2023/02/11 02:02:51;;;;;;;41.20;11.43;;;7.60;99.90;;;;;;4649068;30;20248;-80
2023/02/11 02:05:22;;;;;;;36.47;10.77;;;7.70;99.90;;;;;;4618746;30;20237;-82
2023/02/11 02:08:14;;;;;;;34.30;11.77;;;7.70;99.90;;;;;;4652967;30;20206;-80
2023/02/11 02:10:44;;;;;;;37.30;11.35;;;7.70;99.90;;;;;;4645704;30;20311;-80
2023/02/11 02:13:11;;;;;;;37.47;11.63;;;7.70;99.90;;;;;;4650896;30;20404;-83
2023/02/11 02:15:40;;;;;;;32.22;11.70;;;7.60;99.90;;;;;;4639227;30;20288;-78
2023/02/11 02:18:27;;;;;;;33.47;12.75;;;7.60;99.90;;;;;;4649552;30;20209;-80
2023/02/11 02:21:15;;;;;;;33.13;11.85;;;7.70;99.90;;;;;;4620843;30;20202;-78
2023/02/11 02:24:06;;;;;;;38.72;12.43;;;7.60;99.90;;;;;;4649664;30;20198;-80
2023/02/11 02:26:53;;;;;;;39.10;12.90;;;7.60;99.90;;;;;;4644002;30;20248;-80
2023/02/11 02:29:32;;;;;;;37.78;11.98;;;7.60;99.90;;;;;;4639831;30;20205;-81
2023/02/11 02:32:24;;;;;;;31.60;12.02;;;7.60;99.90;;;;;;4653812;30;20189;-81
2023/02/11 02:35:04;;;;;;;34.17;12.35;;;7.60;99.90;;;;;;4654530;30;20312;-78
2023/02/11 02:37:36;;;;;;;36.53;12.73;;;7.60;99.90;;;;;;4640196;30;20243;-80
2023/02/11 02:40:08;;;;;;;42.30;13.52;;;7.60;99.90;;;;;;4630088;30;20268;-78
2023/02/11 02:42:35;;;;;;;28.60;12.50;;;7.60;99.90;;;;;;4648827;30;20192;-79
2023/02/11 02:45:01;;;;;;;30.05;13.10;;;7.60;99.90;;;;;;4636101;30;20207;-80
2023/02/11 02:47:27;;;;;;;35.08;12.60;;;7.60;99.90;;;;;;4656199;30;20230;-79
2023/02/11 02:49:52;;;;;;;41.88;15.00;;;7.60;99.90;;;;;;4656287;30;20707;-80
2023/02/11 02:52:33;;;;;;;29.17;12.57;;;7.60;99.90;;;;;;4641322;30;20200;-80
2023/02/11 02:55:05;;;;;;;31.10;12.63;;;7.60;99.90;;;;;;4630272;30;20942;-81
2023/02/11 02:57:46;;;;;;;39.00;13.48;;;7.60;99.90;;;;;;4654269;30;20194;-80
2023/02/11 03:00:47;;;;;;;36.58;12.85;;;7.60;99.90;;;;;;4639824;30;20638;-79
2023/02/11 03:03:42;;;;;;;35.80;13.30;;;7.60;99.90;;;;;;4648182;30;20202;-80
2023/02/11 03:06:17;;;;;;;33.90;14.05;;;7.60;99.90;;;;;;4635201;30;20225;-79
2023/02/11 03:08:49;;;;;;;34.67;13.73;;;7.60;99.90;;;;;;4639345;30;20202;-80
2023/02/11 03:11:18;;;;;;;39.88;13.98;;;7.60;99.90;;;;;;4653950;30;22608;-80
2023/02/11 03:13:46;;;;;;;34.30;14.07;;;7.50;99.90;;;;;;4649204;30;20341;-79
2023/02/11 03:16:24;;;;;;;38.60;13.88;;;7.60;99.90;;;;;;4653820;30;20209;-80
2023/02/11 03:18:58;;;;;;;33.63;13.88;;;7.60;99.90;;;;;;4653673;30;20189;-79
2023/02/11 03:21:25;;;;;;;30.45;14.77;;;7.60;99.90;;;;;;4652782;30;20757;-83
2023/02/11 03:24:00;;;;;;;31.83;14.43;;;7.60;99.90;;;;;;4648803;30;20202;-80
2023/02/11 03:26:37;;;;;;;37.38;14.60;;;7.60;99.90;;;;;;4646124;30;20645;-79
2023/02/11 03:29:19;;;;;;;38.45;15.05;;;7.60;99.90;;;;;;4653240;30;20267;-82
2023/02/11 03:32:10;;;;;;;35.38;15.13;;;7.70;99.90;;;;;;4653844;30;20200;-80
2023/02/11 03:34:51;;;;;;;35.33;15.27;;;7.60;99.90;;;;;;4652614;30;20197;-78
2023/02/11 03:37:26;;;;;;;35.55;15.73;;;7.60;99.90;;;;;;4638130;30;20201;-78
2023/02/11 03:40:14;;;;;;;34.55;16.55;;;7.60;99.90;;;;;;4653571;30;20189;-81
2023/02/11 03:42:49;;;;;;;42.67;17.00;;;7.70;99.90;;;;;;4652920;30;20639;-78
2023/02/11 03:45:19;;;;;;;40.65;15.82;;;7.70;99.90;;;;;;4647713;30;20204;-79
2023/02/11 03:47:54;;;;;;;38.97;16.88;;;7.70;99.90;;;;;;4639920;30;20241;-80
2023/02/11 03:50:22;;;;;;;35.50;16.08;;;7.70;99.90;;;;;;4629068;30;20492;-82
2023/02/11 03:52:48;;;;;;;45.65;17.48;;;7.70;99.90;;;;;;4650455;30;20248;-82
2023/02/11 03:55:19;;;;;;;43.72;17.63;;;7.70;99.90;;;;;;4648247;30;22159;-81
2023/02/11 03:57:46;;;;;;;41.92;17.58;;;7.70;99.90;;;;;;4637649;30;20201;-79
2023/02/11 04:00:13;;;;;;;36.10;17.70;;;7.70;99.90;;;;;;4637826;30;20522;-78
2023/02/11 04:02:40;;;;;;;39.58;18.60;;;7.80;99.90;;;;;;4635203;30;20245;-81
2023/02/11 04:05:07;;;;;;;42.70;18.13;;;7.70;99.90;;;;;;4649560;30;20714;-82
2023/02/11 04:07:34;;;;;;;46.20;19.00;;;7.70;99.90;;;;;;4639565;30;20264;-80
2023/02/11 04:10:00;;;;;;;41.63;18.52;;;7.80;99.90;;;;;;4652656;30;20206;-81
2023/02/11 04:12:25;;;;;;;47.03;19.17;;;7.80;99.90;;;;;;4652401;30;20209;-80
2023/02/11 04:14:51;;;;;;;45.90;19.48;;;7.70;99.90;;;;;;4623860;30;20288;-82
2023/02/11 04:17:17;;;;;;;39.55;18.75;;;7.80;99.90;;;;;;4638647;30;20734;-79
2023/02/11 04:19:43;;;;;;;44.65;18.27;;;7.80;99.90;;;;;;4650353;30;20318;-79
2023/02/11 04:22:09;;;;;;;43.75;19.95;;;7.90;99.90;;;;;;4629160;30;20574;-78
2023/02/11 04:24:34;;;;;;;38.97;20.50;;;7.90;99.90;;;;;;4619545;30;20260;-80
2023/02/11 04:27:00;;;;;;;43.15;19.95;;;7.90;99.90;;;;;;4652093;30;20232;-80
2023/02/11 04:29:27;;;;;;;42.53;19.38;;;7.90;99.90;;;;;;4651263;30;20721;-84
2023/02/11 04:31:53;;;;;;;39.95;20.80;;;7.90;99.90;;;;;;4651973;30;20213;-80
2023/02/11 04:34:19;;;;;;;44.55;21.40;;;7.90;99.90;;;;;;4652204;30;20252;-81
2023/02/11 04:36:45;;;;;;;44.75;20.80;;;8.00;99.90;;;;;;4652591;30;20510;-80
2023/02/11 04:39:11;;;;;;;43.00;21.02;;;8.00;99.90;;;;;;4637541;30;20201;-80
2023/02/11 04:41:37;;;;;;;44.78;20.38;;;8.00;99.90;;;;;;4638243;30;20310;-79
2023/02/11 04:44:03;;;;;;;45.63;21.60;;;8.00;99.90;;;;;;4653602;30;20966;-79
2023/02/11 04:46:29;;;;;;;39.60;21.40;;;8.10;99.90;;;;;;4653865;30;20236;-82
2023/02/11 04:48:55;;;;;;;44.58;21.08;;;8.10;99.90;;;;;;4633273;30;20209;-79
2023/02/11 04:51:21;;;;;;;41.17;20.70;;;8.10;99.90;;;;;;4638210;30;20201;-82
2023/02/11 04:53:47;;;;;;;45.78;21.63;;;8.10;99.90;;;;;;4635070;30;20201;-84
2023/02/11 04:56:13;;;;;;;42.88;20.75;;;8.20;99.90;;;;;;4651491;30;20201;-79
2023/02/11 04:58:38;;;;;;;44.72;20.02;;;8.20;99.90;;;;;;4638116;30;20339;-83
2023/02/11 05:01:09;;;;;;;44.58;20.48;;;8.20;99.90;;;;;;4628551;30;20677;-80
2023/02/11 05:03:36;;;;;;;49.75;20.85;;;8.20;99.90;;;;;;4624682;30;20204;-79
2023/02/11 05:06:03;;;;;;;39.45;20.00;;;8.10;99.90;;;;;;4651021;30;20213;-82
2023/02/11 05:08:28;;;;;;;42.20;20.13;;;8.20;99.90;;;;;;4651449;30;20329;-79
2023/02/11 05:10:54;;;;;;;43.53;19.58;;;8.20;99.90;;;;;;4653357;30;22677;-78
2023/02/11 05:13:20;;;;;;;40.53;20.42;;;8.20;99.90;;;;;;4639350;30;20647;-79
2023/02/11 05:15:46;;;;;;;35.28;21.17;;;8.30;99.90;;;;;;4652031;30;20209;-78
2023/02/11 05:18:13;;;;;;;44.72;21.13;;;8.30;99.90;;;;;;4648563;30;20201;-84
2023/02/11 05:20:40;;;;;;;43.38;20.90;;;8.30;99.90;;;;;;4638575;30;20213;-83
2023/02/11 05:23:06;;;;;;;43.63;20.35;;;8.30;99.90;;;;;;4653322;30;20263;-79
2023/02/11 05:25:32;;;;;;;42.10;20.95;;;8.30;99.90;;;;;;4653456;30;20228;-79
2023/02/11 05:27:58;;;;;;;41.58;21.20;;;8.30;99.90;;;;;;4650071;30;20217;-80
2023/02/11 05:30:24;;;;;;;43.00;20.65;;;8.30;99.90;;;;;;4653523;30;20656;-81
2023/02/11 05:32:50;;;;;;;40.72;21.67;;;8.30;99.90;;;;;;4640286;30;20413;-79
2023/02/11 05:35:16;;;;;;;39.55;20.60;;;8.30;99.90;;;;;;4633375;30;20201;-80
2023/02/11 05:37:42;;;;;;;36.95;20.33;;;8.30;99.90;;;;;;4653751;30;20239;-80
2023/02/11 05:40:08;;;;;;;49.90;21.35;;;8.30;99.90;;;;;;4640168;30;20733;-82
2023/02/11 05:42:34;;;;;;;41.58;20.88;;;8.30;99.90;;;;;;4639974;30;20197;-79
2023/02/11 05:45:00;;;;;;;43.45;21.02;;;8.30;99.90;;;;;;4638671;30;21149;-82
2023/02/11 05:47:26;;;;;;;41.85;20.05;;;8.30;99.90;;;;;;4653936;30;20328;-81
2023/02/11 05:49:54;;;;;;;43.95;20.77;;;8.30;99.90;;;;;;4649699;30;20205;-79
2023/02/11 05:52:21;;;;;;;43.97;20.95;;;8.40;99.90;;;;;;4642809;30;20205;-79
2023/02/11 05:54:46;;;;;;;38.55;19.63;;;8.30;99.90;;;;;;4653748;30;20197;-81
2023/02/11 05:57:13;;;;;;;44.95;19.65;;;8.30;99.90;;;;;;4656081;30;20564;-78
2023/02/11 05:59:39;;;;;;;32.78;18.35;;;8.30;99.90;;;;;;4638148;30;20268;-82
2023/02/11 06:02:06;;;;;;;42.83;19.42;;;8.30;99.90;;;;;;4618299;30;20729;-78
2023/02/11 06:04:33;;;;;;;37.05;18.38;;;8.30;99.90;;;;;;4650262;30;20213;-82
2023/02/11 06:06:58;;;;;;;38.13;18.48;;;8.30;99.90;;;;;;4640205;30;20277;-80
2023/02/11 06:09:24;;;;;;;36.22;19.05;;;8.30;99.90;;;;;;4652717;30;20214;-81
2023/02/11 06:11:50;;;;;;;43.88;19.50;;;8.30;99.90;;;;;;4651597;30;20207;-78
2023/02/11 06:14:16;;;;;;;39.10;18.15;;;8.30;99.90;;;;;;4655446;30;20689;-79
2023/02/11 06:16:42;;;;;;;41.63;18.33;;;8.30;99.90;;;;;;4653772;30;20208;-82
2023/02/11 06:19:08;;;;;;;33.58;18.40;;;8.30;99.90;;;;;;4633953;30;20233;-81
2023/02/11 06:21:34;;;;;;;36.92;18.13;;;8.30;99.90;;;;;;4655607;30;20194;-83
2023/02/11 06:23:59;;;;;;;36.25;19.23;;;8.30;99.90;;;;;;4655155;30;20686;-78
2023/02/11 06:26:25;;;;;;;39.20;18.75;;;8.40;99.90;;;;;;4653165;30;20260;-79
2023/02/11 06:28:51;;;;;;;35.22;18.77;;;8.40;99.90;;;;;;4619238;30;20212;-80
2023/02/11 06:31:17;;;;;;;40.97;18.85;;;8.40;99.90;;;;;;4655526;30;20722;-78
2023/02/11 06:33:43;;;;;;;40.88;17.77;;;8.40;99.90;;;;;;4657107;30;20201;-79
2023/02/11 06:36:15;;;;;;;37.05;19.15;;;8.30;99.90;;;;;;4656039;30;20224;-83
2023/02/11 06:38:41;;;;;;;40.78;17.20;;;8.40;99.90;;;;;;4652922;30;20288;-80
2023/02/11 06:41:11;;;;;;;37.63;18.98;;;8.40;99.90;;;;;;4653395;30;20202;-81
2023/02/11 06:43:37;;;;;;;37.35;18.95;;;8.30;99.90;;;;;;4640310;30;20348;-82
2023/02/11 06:46:03;;;;;;;39.70;18.55;;;8.30;99.90;;;;;;4652911;30;20218;-83
2023/02/11 06:48:29;;;;;;;31.42;18.95;;;8.30;99.90;;;;;;4655768;30;20205;-78
2023/02/11 06:50:55;;;;;;;39.55;18.20;;;8.30;99.90;;;;;;4629931;30;20820;-80
2023/02/11 06:53:20;;;;;;;34.85;17.85;;;8.30;99.90;;;;;;4653506;30;20232;-78
2023/02/11 06:55:46;;;;;;;43.17;18.48;;;8.30;99.90;;;;;;4639689;30;20765;-80
2023/02/11 06:58:12;;;;;;;37.42;17.63;;;8.30;99.90;;;;;;4651905;30;20200;-81
2023/02/11 07:00:38;;;;;;;35.70;17.45;;;8.30;99.90;;;;;;4653083;30;20224;-81
2023/02/11 07:03:03;;;;;;;39.03;19.08;;;8.30;99.90;;;;;;4653300;30;20201;-82
2023/02/11 07:05:29;;;;;;;36.85;18.00;;;8.30;99.90;;;;;;4653789;30;20237;-79
2023/02/11 07:07:55;;;;;;;38.15;18.35;;;8.30;99.90;;;;;;4630983;30;20235;-78
2023/02/11 07:10:21;;;;;;;36.22;19.05;;;8.30;99.90;;;;;;4652870;30;20743;-84
2023/02/11 07:12:47;;;;;;;36.97;18.55;;;8.40;99.90;;;;;;4652837;30;20210;-80
2023/02/11 07:15:13;;;;;;;37.65;18.88;;;8.30;99.90;;;;;;4639465;30;20655;-78
2023/02/11 07:17:38;;;;;;;35.47;19.00;;;8.40;99.90;;;;;;4657141;30;20698;-81
2023/02/11 07:20:04;;;;;;;35.33;19.10;;;8.40;99.90;;;;;;4642019;30;20212;-79
2023/02/11 07:22:30;;;;;;;38.92;21.23;;;8.40;99.90;;;;;;4655171;30;20198;-82
2023/02/11 07:24:56;;;;;;;39.30;19.63;;;8.40;99.90;;;;;;4655323;30;20213;-78
2023/02/11 07:27:22;;;;;;;38.63;20.45;;;8.40;99.90;;;;;;4635740;30;20233;-77
2023/02/11 07:29:48;;;;;;;37.63;18.73;;;8.40;99.90;;;;;;4654118;30;20697;-79
2023/02/11 07:32:13;;;;;;;34.33;18.58;;;8.50;99.90;;;;;;4657168;30;20226;-77
2023/02/11 07:34:39;;;;;;;35.55;18.05;;;8.50;99.90;;;;;;4619082;30;20206;-80
2023/02/11 07:37:05;;;;;;;33.90;18.55;;;8.50;99.90;;;;;;4647806;30;20208;-78
2023/02/11 07:39:31;;;;;;;36.35;17.67;;;8.50;99.90;;;;;;4653991;30;20293;-78
2023/02/11 07:41:57;;;;;;;33.22;17.42;;;8.50;99.90;;;;;;4654603;30;20308;-78
2023/02/11 07:44:23;;;;;;;32.00;17.58;;;8.50;99.90;;;;;;4632373;30;20197;-80
2023/02/11 07:46:49;;;;;;;38.78;18.10;;;8.50;99.90;;;;;;4638634;30;20237;-78
2023/02/11 07:49:15;;;;;;;37.80;18.00;;;8.50;99.90;;;;;;4653664;30;20209;-78
2023/02/11 07:51:41;;;;;;;36.05;17.05;;;8.50;99.90;;;;;;4634222;30;22969;-82
2023/02/11 07:54:09;;;;;;;31.77;16.02;;;8.60;99.90;;;;;;4652723;30;20288;-79
2023/02/11 07:56:34;;;;;;;32.42;16.17;;;8.60;99.90;;;;;;4652227;30;20206;-82
2023/02/11 07:59:02;;;;;;;31.83;15.75;;;8.60;99.90;;;;;;4651719;30;20201;-79
2023/02/11 08:01:28;;;;;;;32.70;16.55;;;8.60;99.90;;;;;;4652044;30;20241;-79
2023/02/11 08:03:56;;;;;;;35.13;15.90;;;8.60;99.90;;;;;;4651615;30;20216;-80
2023/02/11 08:06:23;;;;;;;29.63;15.07;;;8.60;99.90;;;;;;4650658;30;20312;-81
2023/02/11 08:08:49;;;;;;;31.08;16.00;;;8.70;99.90;;;;;;4651968;30;20197;-78
2023/02/11 08:11:24;;;;;;;34.33;14.98;;;8.70;99.90;;;;;;4653970;30;20201;-83
2023/02/11 08:13:50;;;;;;;34.08;15.18;;;8.70;99.90;;;;;;4635642;30;20201;-78
2023/02/11 08:16:28;;;;;;;30.52;15.13;;;8.70;99.90;;;;;;4631563;30;20214;-82
2023/02/11 08:19:00;;;;;;;26.90;14.23;;;8.80;99.90;;;;;;4638246;30;20575;-80
2023/02/11 08:21:26;;;;;;;29.52;14.55;;;8.80;99.90;;;;;;4644811;30;20328;-83
2023/02/11 08:23:53;;;;;;;33.13;14.38;;;8.80;99.90;;;;;;4650610;30;20199;-78
2023/02/11 08:26:24;;;;;;;33.75;14.80;;;8.80;99.90;;;;;;4650400;30;20580;-78
2023/02/11 08:28:52;;;;;;;28.63;14.10;;;8.80;99.90;;;;;;4651520;30;20689;-81
2023/02/11 08:31:20;;;;;;;30.10;13.77;;;8.80;99.90;;;;;;4636717;30;20236;-78
2023/02/11 08:33:46;;;;;;;28.40;14.10;;;8.90;99.90;;;;;;4650719;30;20243;-81
2023/02/11 08:36:17;;;;;;;33.60;14.77;;;8.90;99.90;;;;;;4650594;30;20289;-78
2023/02/11 08:38:44;;;;;;;27.60;12.57;;;9.00;99.90;;;;;;4652383;30;20201;-80
2023/02/11 08:41:10;;;;;;;30.13;12.88;;;9.00;99.90;;;;;;4653177;30;20201;-79
2023/02/11 08:43:40;;;;;;;28.00;12.68;;;8.90;99.90;;;;;;4616771;30;20600;-83
2023/02/11 08:46:07;;;;;;;27.40;12.35;;;9.00;99.90;;;;;;4643209;30;20225;-82
2023/02/11 08:48:33;;;;;;;28.55;12.43;;;9.00;99.90;;;;;;4662475;30;20202;-88
2023/02/11 08:50:59;;;;;;;26.65;12.23;;;9.10;99.90;;;;;;4657301;30;20196;-85
2023/02/11 08:53:28;;;;;;;29.33;13.15;;;9.00;99.90;;;;;;4632320;30;20565;-91
2023/02/11 08:56:05;;;;;;;28.92;12.10;;;9.10;99.90;;;;;;4646878;30;20184;-85
2023/02/11 08:58:32;;;;;;;25.85;12.88;;;9.10;99.90;;;;;;4638374;30;20214;-86
2023/02/11 09:00:57;;;;;;;30.63;11.73;;;9.20;99.90;;;;;;4638914;30;20244;-90
2023/02/11 09:03:23;;;;;;;29.95;11.77;;;9.20;99.90;;;;;;4656377;30;20216;-82
2023/02/11 09:05:52;;;;;;;25.65;11.23;;;9.10;99.90;;;;;;4642986;30;20313;-87
2023/02/11 09:08:19;;;;;;;26.25;12.82;;;9.20;99.90;;;;;;4610920;30;20231;-81
2023/02/11 09:10:45;;;;;;;22.52;12.40;;;9.20;99.90;;;;;;4652908;30;20204;-79
2023/02/11 09:13:11;;;;;;;33.78;12.18;;;9.30;99.90;;;;;;4643668;30;20258;-80
2023/02/11 09:15:37;;;;;;;28.50;11.52;;;9.30;99.90;;;;;;4651864;30;20205;-79
2023/02/11 09:18:04;;;;;;;26.55;11.27;;;9.30;99.90;;;;;;4649976;30;20212;-81
2023/02/11 09:20:30;;;;;;;30.02;12.10;;;9.30;99.90;;;;;;4637953;30;20231;-81
2023/02/11 09:22:57;;;;;;;23.98;11.23;;;9.40;99.90;;;;;;4652164;30;20206;-81
2023/02/11 09:25:24;;;;;;;31.58;12.30;;;9.30;99.90;;;;;;4652869;30;20268;-78
2023/02/11 09:27:51;;;;;;;32.20;11.55;;;9.40;99.90;;;;;;4654956;30;20264;-82
2023/02/11 09:30:17;;;;;;;26.45;10.88;;;9.40;99.90;;;;;;4654472;30;20205;-79
2023/02/11 09:32:42;;;;;;;26.42;11.95;;;9.40;99.90;;;;;;4655999;30;20212;-79
2023/02/11 09:35:08;;;;;;;27.83;12.23;;;9.40;99.90;;;;;;4641550;30;20652;-79
2023/02/11 09:37:34;;;;;;;25.45;11.23;;;9.40;99.90;;;;;;4654712;30;20244;-81
2023/02/11 09:40:00;;;;;;;27.35;11.35;;;9.50;99.90;;;;;;4641889;30;20201;-76
2023/02/11 09:42:49;;;;;;;27.50;11.57;;;9.50;99.90;;;;;;4654896;30;20245;-79
2023/02/11 09:45:21;;;;;;;31.83;10.90;;;9.50;99.90;;;;;;4654827;30;20672;-77
2023/02/11 09:48:04;;;;;;;26.42;11.05;;;9.50;99.90;;;;;;4643451;30;20284;-76
2023/02/11 09:50:34;;;;;;;24.08;10.10;;;9.60;99.90;;;;;;4654671;30;20224;-82
2023/02/11 09:53:08;;;;;;;28.05;10.90;;;9.60;99.90;;;;;;4654465;30;20187;-79
2023/02/11 09:55:38;;;;;;;28.38;10.57;;;9.60;99.90;;;;;;4654737;30;20677;-76
2023/02/11 09:58:14;;;;;;;27.05;10.32;;;9.70;99.90;;;;;;4631818;30;20271;-80
2023/02/11 10:00:50;;;;;;;26.52;9.98;;;9.70;99.90;;;;;;4656107;30;20220;-76
2023/02/11 10:03:31;;;;;;;25.90;9.50;;;9.70;99.90;;;;;;4653931;30;20229;-76
2023/02/11 10:06:27;;;;;;;23.85;9.65;;;9.80;99.90;;;;;;4630704;30;20276;-79
2023/02/11 10:09:14;;;;;;;28.05;9.90;;;9.80;99.90;;;;;;4655816;30;20208;-79
2023/02/11 10:12:10;;;;;;;24.15;9.18;;;9.80;99.90;;;;;;4650272;30;20250;-81
2023/02/11 10:15:00;;;;;;;20.08;8.52;;;9.90;99.90;;;;;;4654045;30;20191;-79
2023/02/11 10:17:37;;;;;;;26.92;9.52;;;9.90;99.90;;;;;;4654749;30;20786;-79
2023/02/11 10:20:27;;;;;;;24.00;9.05;;;10.00;99.90;;;;;;4651194;30;20209;-79
2023/02/11 10:22:57;;;;;;;23.08;8.85;;;9.90;99.90;;;;;;4652517;30;20193;-78
2023/02/11 10:25:36;;;;;;;25.42;8.80;;;10.00;99.90;;;;;;4655539;30;20210;-77
2023/02/11 10:28:15;;;;;;;29.95;8.52;;;10.00;99.90;;;;;;4649199;30;20405;-80
2023/02/11 10:31:02;;;;;;;24.20;8.57;;;10.00;99.90;;;;;;4656268;30;20655;-78
2023/02/11 10:33:38;;;;;;;22.70;8.13;;;10.10;99.90;;;;;;4655555;30;20215;-76
2023/02/11 10:36:04;;;;;;;22.83;8.02;;;10.10;99.90;;;;;;4639819;30;20284;-76
2023/02/11 10:38:31;;;;;;;26.10;7.57;;;10.10;99.90;;;;;;4654133;30;20285;-77
2023/02/11 10:40:57;;;;;;;18.17;7.03;;;10.20;99.90;;;;;;4653325;30;20208;-78
2023/02/11 10:43:26;;;;;;;22.83;7.15;;;10.20;99.90;;;;;;4656995;30;20202;-77
2023/02/11 10:45:55;;;;;;;19.83;6.65;;;10.20;99.90;;;;;;4654747;30;20217;-80
2023/02/11 10:48:39;;;;;;;24.02;7.55;;;10.20;99.90;;;;;;4653410;30;20205;-79
2023/02/11 10:51:24;;;;;;;29.85;7.13;;;10.30;99.90;;;;;;4653445;30;20215;-83
2023/02/11 10:54:02;;;;;;;24.45;7.20;;;10.30;99.90;;;;;;4638479;30;20607;-81
2023/02/11 10:56:34;;;;;;;19.92;6.93;;;10.30;99.90;;;;;;4638908;30;20714;-82
2023/02/11 10:59:14;;;;;;;17.83;6.47;;;10.40;99.90;;;;;;4639864;30;20209;-76
2023/02/11 11:01:49;;;;;;;21.52;5.68;;;10.40;99.90;;;;;;4653931;30;20240;-76
2023/02/11 11:04:34;;;;;;;23.23;5.90;;;10.40;99.90;;;;;;4641720;30;20200;-76
2023/02/11 11:07:21;;;;;;;24.67;6.05;;;10.40;99.90;;;;;;4654644;30;20253;-79
2023/02/11 11:10:01;;;;;;;21.15;5.22;;;10.40;99.90;;;;;;4653791;30;20201;-79
2023/02/11 11:12:47;;;;;;;23.42;5.07;;;10.40;99.90;;;;;;4652421;30;20285;-77
2023/02/11 11:15:23;;;;;;;20.50;5.30;;;10.40;99.90;;;;;;4653458;30;20263;-79
2023/02/11 11:17:50;;;;;;;20.42;5.55;;;10.50;99.90;;;;;;4653827;30;20251;-77
2023/02/11 11:20:19;;;;;;;20.10;5.03;;;10.50;99.90;;;;;;4654330;30;20202;-77
2023/02/11 11:22:47;;;;;;;19.33;4.72;;;10.50;99.90;;;;;;4654541;30;20258;-80
2023/02/11 11:25:28;;;;;;;19.50;5.03;;;10.50;99.90;;;;;;4653675;30;20197;-78
2023/02/11 11:27:59;;;;;;;22.52;4.90;;;10.50;99.90;;;;;;4654074;30;20255;-77
2023/02/11 11:30:33;;;;;;;19.10;4.78;;;10.50;99.90;;;;;;4654474;30;21267;-81
2023/02/11 11:33:00;;;;;;;18.33;4.90;;;10.50;99.90;;;;;;4653432;30;20190;-76
2023/02/11 11:35:27;;;;;;;21.30;4.50;;;10.50;99.90;;;;;;4653050;30;20194;-77
2023/02/11 11:37:59;;;;;;;17.95;3.88;;;10.50;99.90;;;;;;4656499;30;20201;-78
2023/02/11 11:40:28;;;;;;;23.67;5.03;;;10.50;99.90;;;;;;4655282;30;20204;-81
2023/02/11 11:43:12;;;;;;;16.35;4.38;;;10.60;99.90;;;;;;4655094;30;20769;-76
2023/02/11 11:45:38;;;;;;;16.27;3.92;;;10.60;99.90;;;;;;4654145;30;20279;-76
2023/02/11 11:48:45;;;;;;;19.20;4.00;;;10.60;99.90;;;;;;4641692;30;20205;-79
2023/02/11 11:51:12;;;;;;;20.88;3.70;;;10.70;99.90;;;;;;4566377;31;20216;-79
2023/02/11 11:53:59;;;;;;;21.02;4.30;;;10.70;99.90;;;;;;4641001;30;20328;-81
2023/02/11 11:56:39;;;;;;;19.13;3.53;;;10.70;99.90;;;;;;4652983;30;20237;-78
2023/02/11 11:59:13;;;;;;;18.63;3.60;;;10.70;99.90;;;;;;4653125;30;20289;-80
2023/02/11 12:02:00;;;;;;;19.15;4.03;;;10.80;99.90;;;;;;4654169;30;21345;-78
2023/02/11 12:04:37;;;;;;;15.02;3.95;;;10.80;99.90;;;;;;4650795;30;20988;-79
2023/02/11 12:07:40;;;;;;;30.52;4.32;;;10.80;99.90;;;;;;4647797;30;20301;-81
2023/02/11 12:10:28;;;;;;;19.73;3.78;;;10.80;99.90;;;;;;4654314;30;20317;-79
2023/02/11 12:13:12;;;;;;;10.50;3.20;;;10.80;99.90;;;;;;4652226;30;20243;-79
2023/02/11 12:15:43;;;;;;;17.83;3.45;;;10.80;99.90;;;;;;4654952;30;20248;-77
2023/02/11 12:18:31;;;;;;;14.48;3.60;;;10.90;99.90;;;;;;4655562;30;20194;-81
2023/02/11 12:21:22;;;;;;;23.90;4.28;;;10.90;99.90;;;;;;4653458;30;20288;-77
2023/02/11 12:24:02;;;;;;;12.55;3.20;;;10.90;99.90;;;;;;4652887;30;20207;-78
2023/02/11 12:26:48;;;;;;;23.40;3.97;;;10.90;99.90;;;;;;4652586;30;20663;-79
2023/02/11 12:29:29;;;;;;;18.23;3.35;;;10.90;99.90;;;;;;4630457;30;20204;-80
2023/02/11 12:32:17;;;;;;;26.92;3.95;;;10.90;99.90;;;;;;4654258;30;20589;-81
2023/02/11 12:35:33;;;;;;;21.98;3.85;;;11.00;99.90;;;;;;4629339;30;20283;-77
2023/02/11 12:38:26;;;;;;;19.33;3.50;;;11.00;99.90;;;;;;4646860;30;20228;-77
2023/02/11 12:43:14;;;;;;;22.50;4.15;;;11.00;99.90;;;;;;4648913;30;20207;-78
2023/02/11 12:44:08;;;;;;;20.15;4.07;;;11.00;99.90;;;;;;4652824;30;20200;-78
2023/02/11 12:46:45;;;;;;;18.42;3.47;;;11.00;99.90;;;;;;4656221;30;20385;-78
2023/02/11 12:49:50;;;;;;;20.63;4.05;;;11.00;99.90;;;;;;4654660;30;20196;-80
2023/02/11 12:52:38;;;;;;;22.08;3.28;;;11.00;99.90;;;;;;4621517;30;20288;-82
2023/02/11 12:55:18;;;;;;;24.42;3.97;;;11.00;99.90;;;;;;4653302;30;20189;-78
2023/02/11 12:57:46;;;;;;;20.73;4.00;;;11.00;99.90;;;;;;4631830;30;20666;-81
2023/02/11 13:00:17;;;;;;;17.67;3.53;;;11.00;99.90;;;;;;4652612;30;20202;-77
2023/02/11 13:02:58;;;;;;;21.50;3.70;;;11.00;99.90;;;;;;4652732;30;20245;-81